Fantasy — H3GS — position and weather

sailwx.info

Track history (hours):
 
Tides and Currents Weather Stations Pressure Air Temp Water Temp Dewpoint Dewpoint Depression Visibility Wind Speed Wind Dir Waves Ship Positions

Fantasy

Operator: Carnival Cruise Lines

Last reported at 2015-May-05 16:18 UTC. Time now 2015-May-06 07:26 UTC.
Position N 26°44' W 079°28'.

Type: Ship. MMSI: 353486000.

Date/timePositionNaut miles runAvg speedWind from/ knotsBaromVisibWave heightAir tempDewpointWater temp
2015-May-05 16:18N 26°44' W 079°28'810.3
2015-May-05 15:33N 26°37' W 079°25'  
2015-Apr-29 12:13N 26°31' W 078°46'  
2015-Apr-26 13:32N 27°31' W 079°41'1717.2
2015-Apr-26 12:33N 27°14' W 079°39'1716.6
2015-Apr-26 11:33N 26°59' W 079°32'1615.6
2015-Apr-26 10:33N 26°45' W 079°24'1514.5
2015-Apr-26 09:33N 26°32' W 079°15'1414.0
2015-Apr-26 08:33N 26°23' W 079°03'  
Track history (hours):
 
Tides and Currents Weather Stations Pressure Air Temp Water Temp Dewpoint Dewpoint Depression Visibility Wind Speed Wind Dir Waves Ship Positions

Fantasy

Operator: Carnival Cruise Lines

Last reported at 2015-May-05 16:18 UTC. Time now 2015-May-06 07:26 UTC.
Position N 26°44' W 079°28'.

Type: Ship. MMSI: 353486000.

Date/timePositionNaut miles runAvg speedWind from/ knotsBaromVisibWave heightAir tempDewpointWater temp
2015-May-05 16:18N 26°44' W 079°28'810.3
2015-May-05 15:33N 26°37' W 079°25'  
2015-Apr-29 12:13N 26°31' W 078°46'  
2015-Apr-26 13:32N 27°31' W 079°41'1717.2
2015-Apr-26 12:33N 27°14' W 079°39'1716.6
2015-Apr-26 11:33N 26°59' W 079°32'1615.6
2015-Apr-26 10:33N 26°45' W 079°24'1514.5
2015-Apr-26 09:33N 26°32' W 079°15'1414.0
2015-Apr-26 08:33N 26°23' W 079°03'  

Dump ship's entire track history